PLT2091 SBGO-SBGR
Flight info
| Callsign | PLT2091 |
|---|---|
| Flight time | 1h 16m |
| Altitude | 36000 |
| Route | ESBOD DCT UPONA DCT OBLUG/N0466F330 DCT ZARES |
| Aircraft | B738/M-SDE2E3FGHIRWXY/LB1 |
Departure
| Time | 2026-05-08 21:51 |
|---|---|
| Airport | Santa Genoveva International Airport (SBGO) |
Arrival
| Time | 2026-05-08 23:07 |
|---|---|
| Airport | São Paulo/Guarulhos–Governor André Franco Montoro International Airport (SBGR) |
| Time | Latitude | Longitude | Altitude | Speed | Heading |
|---|---|---|---|---|---|
| 2026-05-08 21:32 | -16.62975 | -49.21532 | 2461 ft | 0 kts | 64° |
| 2026-05-08 21:44 | -16.62976 | -49.21532 | 2461 ft | 1 kts | 64° |
| 2026-05-08 21:44 | -16.62982 | -49.21546 | 2461 ft | 3 kts | 69° |
| 2026-05-08 21:44 | -16.62988 | -49.21566 | 2461 ft | 3 kts | 79° |
| 2026-05-08 21:44 | -16.62990 | -49.21587 | 2467 ft | 3 kts | 99° |
| 2026-05-08 21:45 | -16.62984 | -49.21604 | 2464 ft | 3 kts | 138° |
| 2026-05-08 21:45 | -16.62978 | -49.21609 | 2463 ft | 0 kts | 153° |
| 2026-05-08 21:47 | -16.62979 | -49.21608 | 2463 ft | 1 kts | 152° |
| 2026-05-08 21:47 | -16.63010 | -49.21590 | 2464 ft | 9 kts | 150° |
| 2026-05-08 21:47 | -16.63078 | -49.21540 | 2461 ft | 15 kts | 137° |
| 2026-05-08 21:47 | -16.63154 | -49.21444 | 2464 ft | 20 kts | 121° |
| 2026-05-08 21:48 | -16.63223 | -49.21317 | 2465 ft | 20 kts | 120° |
| 2026-05-08 21:48 | -16.63290 | -49.21194 | 2461 ft | 19 kts | 120° |
| 2026-05-08 21:48 | -16.63357 | -49.21075 | 2463 ft | 19 kts | 121° |
| 2026-05-08 21:48 | -16.63464 | -49.21012 | 2464 ft | 18 kts | 163° |
| 2026-05-08 21:49 | -16.63583 | -49.21002 | 2461 ft | 18 kts | 207° |
| 2026-05-08 21:49 | -16.63699 | -49.21072 | 2462 ft | 20 kts | 209° |
| 2026-05-08 21:49 | -16.63735 | -49.21113 | 2464 ft | 7 kts | 252° |
| 2026-05-08 21:49 | -16.63728 | -49.21161 | 2463 ft | 7 kts | 294° |
| 2026-05-08 21:50 | -16.63700 | -49.21214 | 2460 ft | 21 kts | 299° |
| 2026-05-08 21:50 | -16.63494 | -49.21584 | 2455 ft | 96 kts | 300° |
| 2026-05-08 21:50 | -16.63040 | -49.22393 | 2454 ft | 159 kts | 300° |
| 2026-05-08 21:50 | -16.62426 | -49.23499 | 2842 ft | 188 kts | 300° |
| 2026-05-08 21:51 | -16.61771 | -49.24717 | 3700 ft | 189 kts | 302° |
| 2026-05-08 21:51 | -16.61117 | -49.25857 | 4693 ft | 184 kts | 302° |
| 2026-05-08 21:51 | -16.60418 | -49.27072 | 5040 ft | 209 kts | 302° |
| 2026-05-08 21:51 | -16.59636 | -49.28442 | 5234 ft | 231 kts | 302° |
| 2026-05-08 21:52 | -16.58786 | -49.29945 | 5507 ft | 248 kts | 302° |
| 2026-05-08 21:52 | -16.57902 | -49.31515 | 5971 ft | 253 kts | 301° |
| 2026-05-08 21:52 | -16.57005 | -49.33111 | 6535 ft | 256 kts | 301° |
| 2026-05-08 21:52 | -16.56304 | -49.34851 | 6863 ft | 273 kts | 278° |
| 2026-05-08 21:53 | -16.56505 | -49.36849 | 7312 ft | 286 kts | 249° |
| 2026-05-08 21:53 | -16.57578 | -49.38588 | 7874 ft | 288 kts | 224° |
| 2026-05-08 21:53 | -16.59344 | -49.39557 | 8456 ft | 293 kts | 191° |
| 2026-05-08 21:53 | -16.61351 | -49.39617 | 9256 ft | 295 kts | 172° |
| 2026-05-08 21:54 | -16.63357 | -49.39129 | 10052 ft | 298 kts | 163° |
| 2026-05-08 21:54 | -16.65368 | -49.38468 | 10506 ft | 313 kts | 162° |
| 2026-05-08 21:54 | -16.67527 | -49.37742 | 10678 ft | 337 kts | 162° |
| 2026-05-08 21:54 | -16.69837 | -49.36994 | 10883 ft | 357 kts | 163° |
| 2026-05-08 21:55 | -16.72254 | -49.36244 | 11361 ft | 366 kts | 164° |
| 2026-05-08 21:55 | -16.74712 | -49.35504 | 12027 ft | 369 kts | 164° |
| 2026-05-08 21:55 | -16.77186 | -49.34768 | 12707 ft | 371 kts | 164° |
| 2026-05-08 21:56 | -16.82186 | -49.33218 | 13945 ft | 379 kts | 160° |
| 2026-05-08 21:56 | -16.84642 | -49.32197 | 14490 ft | 382 kts | 156° |
| 2026-05-08 21:56 | -16.87054 | -49.31006 | 15039 ft | 385 kts | 153° |
| 2026-05-08 21:56 | -16.89432 | -49.29695 | 15577 ft | 388 kts | 151° |
| 2026-05-08 21:57 | -16.91805 | -49.28328 | 16096 ft | 391 kts | 150° |
| 2026-05-08 21:57 | -16.94210 | -49.26963 | 16603 ft | 395 kts | 151° |
| 2026-05-08 21:57 | -16.96648 | -49.25621 | 17107 ft | 398 kts | 152° |
| 2026-05-08 21:57 | -16.99120 | -49.24300 | 17600 ft | 401 kts | 152° |
| 2026-05-08 21:58 | -17.01623 | -49.22989 | 18069 ft | 404 kts | 153° |
| 2026-05-08 21:58 | -17.04152 | -49.21677 | 18500 ft | 407 kts | 153° |
| 2026-05-08 21:58 | -17.06702 | -49.20360 | 18895 ft | 410 kts | 153° |
| 2026-05-08 21:58 | -17.09273 | -49.19034 | 19299 ft | 413 kts | 153° |
| 2026-05-08 21:59 | -17.11858 | -49.17699 | 19687 ft | 416 kts | 153° |
| 2026-05-08 21:59 | -17.14463 | -49.16351 | 20078 ft | 419 kts | 153° |
| 2026-05-08 21:59 | -17.17084 | -49.14994 | 20469 ft | 422 kts | 153° |
| 2026-05-08 21:59 | -17.19721 | -49.13627 | 20854 ft | 425 kts | 153° |
| 2026-05-08 22:00 | -17.22377 | -49.12251 | 21236 ft | 427 kts | 153° |
| 2026-05-08 22:00 | -17.25049 | -49.10865 | 21604 ft | 430 kts | 153° |
| 2026-05-08 22:00 | -17.27738 | -49.09471 | 21988 ft | 433 kts | 154° |
| 2026-05-08 22:00 | -17.30530 | -49.08274 | 22321 ft | 436 kts | 167° |
| 2026-05-08 22:01 | -17.33542 | -49.07941 | 22691 ft | 437 kts | 179° |
| 2026-05-08 22:01 | -17.36589 | -49.07943 | 23080 ft | 438 kts | 182° |
| 2026-05-08 22:01 | -17.39649 | -49.08004 | 23417 ft | 442 kts | 181° |
| 2026-05-08 22:01 | -17.42690 | -49.08014 | 23712 ft | 445 kts | 180° |
| 2026-05-08 22:02 | -17.45791 | -49.07901 | 24022 ft | 446 kts | 178° |
| 2026-05-08 22:02 | -17.48894 | -49.07723 | 24343 ft | 448 kts | 178° |
| 2026-05-08 22:02 | -17.52006 | -49.07528 | 24660 ft | 449 kts | 178° |
| 2026-05-08 22:02 | -17.55139 | -49.07341 | 24909 ft | 452 kts | 178° |
| 2026-05-08 22:03 | -17.58290 | -49.07168 | 25190 ft | 454 kts | 178° |
| 2026-05-08 22:03 | -17.61447 | -49.07010 | 25535 ft | 455 kts | 179° |
| 2026-05-08 22:03 | -17.64609 | -49.06862 | 25865 ft | 455 kts | 179° |
| 2026-05-08 22:03 | -17.67782 | -49.06720 | 26162 ft | 457 kts | 179° |
| 2026-05-08 22:04 | -17.70965 | -49.06581 | 26443 ft | 459 kts | 179° |
| 2026-05-08 22:04 | -17.74160 | -49.06442 | 26724 ft | 461 kts | 179° |
| 2026-05-08 22:04 | -17.77370 | -49.06302 | 27011 ft | 462 kts | 179° |
| 2026-05-08 22:04 | -17.80591 | -49.06161 | 27296 ft | 464 kts | 180° |
| 2026-05-08 22:05 | -17.83818 | -49.06020 | 27574 ft | 465 kts | 180° |
| 2026-05-08 22:05 | -17.87062 | -49.05877 | 27840 ft | 467 kts | 180° |
| 2026-05-08 22:05 | -17.90316 | -49.05733 | 28104 ft | 469 kts | 180° |
| 2026-05-08 22:05 | -17.93581 | -49.05588 | 28364 ft | 470 kts | 180° |
| 2026-05-08 22:06 | -17.96853 | -49.05443 | 28628 ft | 472 kts | 180° |
| 2026-05-08 22:06 | -18.00142 | -49.05298 | 28872 ft | 474 kts | 180° |
| 2026-05-08 22:06 | -18.03439 | -49.05151 | 29112 ft | 475 kts | 180° |
| 2026-05-08 22:06 | -18.06750 | -49.05005 | 29359 ft | 477 kts | 180° |
| 2026-05-08 22:07 | -18.10067 | -49.04858 | 29616 ft | 478 kts | 180° |
| 2026-05-08 22:07 | -18.13389 | -49.04710 | 29893 ft | 478 kts | 180° |
| 2026-05-08 22:07 | -18.16713 | -49.04562 | 30230 ft | 477 kts | 180° |
| 2026-05-08 22:07 | -18.20017 | -49.04414 | 30579 ft | 474 kts | 180° |
| 2026-05-08 22:08 | -18.23307 | -49.04267 | 30893 ft | 473 kts | 181° |
| 2026-05-08 22:08 | -18.26550 | -49.04123 | 31161 ft | 473 kts | 181° |
| 2026-05-08 22:08 | -18.29834 | -49.03977 | 31484 ft | 471 kts | 181° |
| 2026-05-08 22:08 | -18.33104 | -49.03831 | 31826 ft | 470 kts | 181° |
| 2026-05-08 22:09 | -18.36365 | -49.03686 | 32148 ft | 469 kts | 181° |
| 2026-05-08 22:09 | -18.39621 | -49.03541 | 32437 ft | 468 kts | 181° |
| 2026-05-08 22:09 | -18.42870 | -49.03397 | 32752 ft | 467 kts | 181° |
| 2026-05-08 22:09 | -18.46105 | -49.03253 | 33102 ft | 465 kts | 181° |
| 2026-05-08 22:10 | -18.49331 | -49.03109 | 33422 ft | 463 kts | 181° |
| 2026-05-08 22:10 | -18.52548 | -49.02965 | 33708 ft | 463 kts | 182° |
| 2026-05-08 22:10 | -18.55766 | -49.02822 | 34000 ft | 462 kts | 182° |
| 2026-05-08 22:10 | -18.58972 | -49.02679 | 34291 ft | 460 kts | 182° |
| 2026-05-08 22:11 | -18.62164 | -49.02537 | 34571 ft | 459 kts | 182° |
| 2026-05-08 22:11 | -18.65350 | -49.02395 | 34805 ft | 458 kts | 182° |
| 2026-05-08 22:11 | -18.68537 | -49.02253 | 35032 ft | 458 kts | 182° |
| 2026-05-08 22:11 | -18.71717 | -49.02111 | 35296 ft | 456 kts | 182° |
| 2026-05-08 22:12 | -18.74885 | -49.01970 | 35548 ft | 455 kts | 182° |
| 2026-05-08 22:12 | -18.78049 | -49.01828 | 35757 ft | 455 kts | 182° |
| 2026-05-08 22:12 | -18.81211 | -49.01687 | 35948 ft | 455 kts | 182° |
| 2026-05-08 22:13 | -18.87534 | -49.01406 | 35975 ft | 455 kts | 182° |
| 2026-05-08 22:13 | -18.92796 | -49.01170 | 35971 ft | 454 kts | 182° |
| 2026-05-08 22:14 | -18.99137 | -49.00886 | 35976 ft | 453 kts | 182° |
| 2026-05-08 22:14 | -19.05390 | -49.00605 | 35973 ft | 452 kts | 182° |
| 2026-05-08 22:15 | -19.11668 | -49.00324 | 35974 ft | 451 kts | 182° |
| 2026-05-08 22:15 | -19.17941 | -49.00043 | 35975 ft | 451 kts | 182° |
| 2026-05-08 22:16 | -19.24211 | -48.99761 | 35974 ft | 451 kts | 182° |
| 2026-05-08 22:16 | -19.30484 | -48.99479 | 35969 ft | 451 kts | 182° |
| 2026-05-08 22:17 | -19.36763 | -48.99197 | 35968 ft | 451 kts | 182° |
| 2026-05-08 22:17 | -19.43038 | -48.98914 | 35972 ft | 451 kts | 182° |
| 2026-05-08 22:18 | -19.49314 | -48.98631 | 35967 ft | 452 kts | 182° |
| 2026-05-08 22:18 | -19.55594 | -48.98348 | 35978 ft | 452 kts | 182° |
| 2026-05-08 22:19 | -19.61885 | -48.98064 | 35966 ft | 452 kts | 182° |
| 2026-05-08 22:19 | -19.68172 | -48.97780 | 35966 ft | 452 kts | 182° |
| 2026-05-08 22:20 | -19.74464 | -48.97496 | 35969 ft | 452 kts | 182° |
| 2026-05-08 22:20 | -19.80752 | -48.97211 | 35955 ft | 452 kts | 182° |
| 2026-05-08 22:21 | -19.86994 | -48.96928 | 35966 ft | 452 kts | 182° |
| 2026-05-08 22:21 | -19.93276 | -48.96643 | 35954 ft | 452 kts | 182° |
| 2026-05-08 22:22 | -19.99559 | -48.96358 | 35955 ft | 451 kts | 182° |
| 2026-05-08 22:22 | -20.05827 | -48.96073 | 35949 ft | 450 kts | 182° |
| 2026-05-08 22:23 | -20.12080 | -48.95789 | 35957 ft | 449 kts | 182° |
| 2026-05-08 22:23 | -20.18328 | -48.95505 | 35953 ft | 449 kts | 182° |
| 2026-05-08 22:24 | -20.24567 | -48.95222 | 35954 ft | 449 kts | 182° |
| 2026-05-08 22:24 | -20.30803 | -48.94938 | 35946 ft | 448 kts | 182° |
| 2026-05-08 22:25 | -20.37032 | -48.94654 | 35952 ft | 448 kts | 183° |
| 2026-05-08 22:25 | -20.43251 | -48.94370 | 35953 ft | 447 kts | 183° |
| 2026-05-08 22:26 | -20.49472 | -48.94086 | 35951 ft | 447 kts | 183° |
| 2026-05-08 22:26 | -20.55691 | -48.93803 | 35953 ft | 447 kts | 183° |
| 2026-05-08 22:27 | -20.61913 | -48.93518 | 35950 ft | 447 kts | 183° |
| 2026-05-08 22:27 | -20.68135 | -48.93234 | 35954 ft | 448 kts | 183° |
| 2026-05-08 22:28 | -20.74367 | -48.92948 | 35957 ft | 448 kts | 183° |
| 2026-05-08 22:28 | -20.80606 | -48.92662 | 35948 ft | 449 kts | 183° |
| 2026-05-08 22:29 | -20.86810 | -48.92378 | 35949 ft | 449 kts | 183° |
| 2026-05-08 22:29 | -20.93062 | -48.92091 | 35951 ft | 450 kts | 183° |
| 2026-05-08 22:30 | -20.99315 | -48.91803 | 35951 ft | 450 kts | 183° |
| 2026-05-08 22:30 | -21.05580 | -48.91515 | 35953 ft | 450 kts | 183° |
| 2026-05-08 22:31 | -21.11843 | -48.91227 | 35948 ft | 451 kts | 183° |
| 2026-05-08 22:31 | -21.18108 | -48.90938 | 35952 ft | 451 kts | 183° |
| 2026-05-08 22:32 | -21.24357 | -48.90032 | 35947 ft | 461 kts | 168° |
| 2026-05-08 22:32 | -21.30432 | -48.87705 | 35952 ft | 464 kts | 165° |
| 2026-05-08 22:33 | -21.36553 | -48.85587 | 35949 ft | 460 kts | 170° |
| 2026-05-08 22:33 | -21.42730 | -48.83801 | 35953 ft | 460 kts | 171° |
| 2026-05-08 22:34 | -21.48897 | -48.81959 | 35947 ft | 461 kts | 170° |
| 2026-05-08 22:34 | -21.55057 | -48.80027 | 35941 ft | 461 kts | 169° |
| 2026-05-08 22:35 | -21.61205 | -48.78062 | 35945 ft | 461 kts | 169° |
| 2026-05-08 22:35 | -21.67351 | -48.76095 | 35941 ft | 461 kts | 169° |
| 2026-05-08 22:36 | -21.73492 | -48.74131 | 35939 ft | 460 kts | 169° |
| 2026-05-08 22:36 | -21.79628 | -48.72171 | 35941 ft | 460 kts | 169° |
| 2026-05-08 22:37 | -21.85760 | -48.70210 | 35941 ft | 459 kts | 169° |
| 2026-05-08 22:37 | -21.91875 | -48.68253 | 35943 ft | 458 kts | 169° |
| 2026-05-08 22:38 | -21.97981 | -48.66297 | 35939 ft | 457 kts | 169° |
| 2026-05-08 22:38 | -22.04074 | -48.64343 | 35939 ft | 457 kts | 170° |
| 2026-05-08 22:39 | -22.10165 | -48.62388 | 35943 ft | 456 kts | 169° |
| 2026-05-08 22:39 | -22.16206 | -48.60447 | 35940 ft | 456 kts | 170° |
| 2026-05-08 22:40 | -22.22292 | -48.58491 | 35940 ft | 456 kts | 169° |
| 2026-05-08 22:40 | -22.28375 | -48.56533 | 35939 ft | 456 kts | 169° |
| 2026-05-08 22:41 | -22.34454 | -48.54574 | 35946 ft | 456 kts | 169° |
| 2026-05-08 22:41 | -22.40540 | -48.52612 | 35945 ft | 456 kts | 169° |
| 2026-05-08 22:42 | -22.46620 | -48.50650 | 35934 ft | 456 kts | 170° |
| 2026-05-08 22:42 | -22.52703 | -48.48684 | 35946 ft | 456 kts | 169° |
| 2026-05-08 22:43 | -22.58713 | -48.46433 | 35920 ft | 466 kts | 155° |
| 2026-05-08 22:43 | -22.61263 | -48.44203 | 35960 ft | 481 kts | 134° |
| 2026-05-08 22:43 | -22.63036 | -48.41094 | 35933 ft | 493 kts | 114° |
| 2026-05-08 22:44 | -22.64881 | -48.33917 | 35933 ft | 497 kts | 107° |
| 2026-05-08 22:44 | -22.66798 | -48.26741 | 35685 ft | 499 kts | 112° |
| 2026-05-08 22:44 | -22.67937 | -48.23176 | 35127 ft | 501 kts | 112° |
| 2026-05-08 22:45 | -22.69100 | -48.19626 | 34538 ft | 500 kts | 112° |
| 2026-05-08 22:45 | -22.70249 | -48.16069 | 34054 ft | 498 kts | 112° |
| 2026-05-08 22:45 | -22.71363 | -48.12541 | 33569 ft | 494 kts | 111° |
| 2026-05-08 22:45 | -22.72454 | -48.09019 | 33084 ft | 491 kts | 111° |
| 2026-05-08 22:46 | -22.73524 | -48.05528 | 32618 ft | 487 kts | 111° |
| 2026-05-08 22:46 | -22.74571 | -48.02108 | 32178 ft | 483 kts | 110° |
| 2026-05-08 22:46 | -22.75625 | -47.98674 | 31739 ft | 479 kts | 110° |
| 2026-05-08 22:46 | -22.76685 | -47.95266 | 31301 ft | 475 kts | 112° |
| 2026-05-08 22:47 | -22.78098 | -47.92080 | 30945 ft | 465 kts | 123° |
| 2026-05-08 22:47 | -22.79792 | -47.89119 | 30538 ft | 461 kts | 124° |
| 2026-05-08 22:47 | -22.81391 | -47.86116 | 30115 ft | 460 kts | 120° |
| 2026-05-08 22:47 | -22.82830 | -47.83031 | 29637 ft | 457 kts | 118° |
| 2026-05-08 22:48 | -22.84232 | -47.79955 | 29160 ft | 454 kts | 118° |
| 2026-05-08 22:48 | -22.85636 | -47.76906 | 28696 ft | 450 kts | 118° |
| 2026-05-08 22:48 | -22.87049 | -47.73896 | 28245 ft | 446 kts | 119° |
| 2026-05-08 22:48 | -22.88469 | -47.70919 | 27804 ft | 442 kts | 119° |
| 2026-05-08 22:49 | -22.89887 | -47.67972 | 27355 ft | 439 kts | 119° |
| 2026-05-08 22:49 | -22.92671 | -47.62202 | 26514 ft | 433 kts | 119° |
| 2026-05-08 22:49 | -22.94088 | -47.59257 | 26075 ft | 431 kts | 119° |
| 2026-05-08 22:50 | -22.95469 | -47.56383 | 25646 ft | 428 kts | 119° |
| 2026-05-08 22:50 | -22.96840 | -47.53527 | 25212 ft | 426 kts | 119° |
| 2026-05-08 22:50 | -22.98206 | -47.50679 | 24771 ft | 425 kts | 118° |
| 2026-05-08 22:50 | -22.99567 | -47.47841 | 24359 ft | 423 kts | 118° |
| 2026-05-08 22:51 | -23.00921 | -47.45015 | 23929 ft | 421 kts | 118° |
| 2026-05-08 22:51 | -23.02271 | -47.42197 | 23495 ft | 420 kts | 118° |
| 2026-05-08 22:51 | -23.03616 | -47.39391 | 23025 ft | 418 kts | 118° |
| 2026-05-08 22:51 | -23.04948 | -47.36607 | 22647 ft | 413 kts | 118° |
| 2026-05-08 22:52 | -23.06262 | -47.33860 | 22298 ft | 408 kts | 118° |
| 2026-05-08 22:52 | -23.07562 | -47.31141 | 21959 ft | 403 kts | 117° |
| 2026-05-08 22:52 | -23.08846 | -47.28455 | 21624 ft | 398 kts | 117° |
| 2026-05-08 22:52 | -23.10114 | -47.25799 | 21292 ft | 394 kts | 117° |
| 2026-05-08 22:53 | -23.11368 | -47.23173 | 20968 ft | 389 kts | 117° |
| 2026-05-08 22:53 | -23.12459 | -47.20623 | 20629 ft | 385 kts | 105° |
| 2026-05-08 22:53 | -23.12781 | -47.17776 | 20334 ft | 377 kts | 84° |
| 2026-05-08 22:53 | -23.12245 | -47.15028 | 20038 ft | 369 kts | 66° |
| 2026-05-08 22:54 | -23.11040 | -47.12610 | 19728 ft | 361 kts | 49° |
| 2026-05-08 22:54 | -23.09375 | -47.10596 | 19436 ft | 358 kts | 43° |
| 2026-05-08 22:54 | -23.07634 | -47.08711 | 19128 ft | 358 kts | 43° |
| 2026-05-08 22:54 | -23.05899 | -47.06758 | 18652 ft | 363 kts | 45° |
| 2026-05-08 22:55 | -23.04205 | -47.04724 | 18124 ft | 365 kts | 46° |
| 2026-05-08 22:55 | -23.02507 | -47.02665 | 17562 ft | 366 kts | 46° |
| 2026-05-08 22:55 | -23.00797 | -47.00618 | 17026 ft | 366 kts | 45° |
| 2026-05-08 22:55 | -22.99072 | -46.98581 | 16499 ft | 366 kts | 45° |
| 2026-05-08 22:56 | -22.97355 | -46.96556 | 15979 ft | 362 kts | 47° |
| 2026-05-08 22:56 | -22.96098 | -46.94268 | 15816 ft | 347 kts | 68° |
| 2026-05-08 22:56 | -22.95596 | -46.91752 | 15459 ft | 340 kts | 84° |
| 2026-05-08 22:56 | -22.95785 | -46.89190 | 14851 ft | 343 kts | 102° |
| 2026-05-08 22:57 | -22.96674 | -46.86783 | 14252 ft | 346 kts | 120° |
| 2026-05-08 22:57 | -22.98198 | -46.84767 | 13696 ft | 347 kts | 136° |
| 2026-05-08 22:57 | -23.00169 | -46.83281 | 13127 ft | 345 kts | 154° |
| 2026-05-08 22:57 | -23.02431 | -46.82410 | 12717 ft | 346 kts | 164° |
| 2026-05-08 22:58 | -23.04763 | -46.81762 | 12310 ft | 346 kts | 166° |
| 2026-05-08 22:58 | -23.07097 | -46.81138 | 11924 ft | 345 kts | 166° |
| 2026-05-08 22:58 | -23.09420 | -46.80473 | 11541 ft | 345 kts | 165° |
| 2026-05-08 22:58 | -23.11696 | -46.79795 | 11169 ft | 344 kts | 165° |
| 2026-05-08 22:59 | -23.13999 | -46.79100 | 10792 ft | 343 kts | 165° |
| 2026-05-08 22:59 | -23.16296 | -46.78407 | 10414 ft | 342 kts | 165° |
| 2026-05-08 22:59 | -23.18346 | -46.77789 | 10090 ft | 342 kts | 165° |
| 2026-05-08 22:59 | -23.20631 | -46.77103 | 10000 ft | 328 kts | 165° |
| 2026-05-08 23:00 | -23.22771 | -46.76460 | 9923 ft | 310 kts | 165° |
| 2026-05-08 23:00 | -23.24815 | -46.75847 | 9650 ft | 302 kts | 165° |
| 2026-05-08 23:00 | -23.26833 | -46.75243 | 9189 ft | 300 kts | 165° |
| 2026-05-08 23:00 | -23.28846 | -46.74642 | 8722 ft | 299 kts | 165° |
| 2026-05-08 23:01 | -23.30849 | -46.74043 | 8274 ft | 298 kts | 165° |
| 2026-05-08 23:01 | -23.32842 | -46.73447 | 7850 ft | 296 kts | 165° |
| 2026-05-08 23:01 | -23.34825 | -46.72853 | 7436 ft | 295 kts | 165° |
| 2026-05-08 23:01 | -23.36794 | -46.72264 | 7029 ft | 293 kts | 165° |
| 2026-05-08 23:02 | -23.38765 | -46.71674 | 6713 ft | 291 kts | 165° |
| 2026-05-08 23:02 | -23.40653 | -46.71109 | 6642 ft | 271 kts | 165° |
| 2026-05-08 23:02 | -23.42341 | -46.70393 | 6474 ft | 252 kts | 142° |
| 2026-05-08 23:02 | -23.43559 | -46.69161 | 6354 ft | 228 kts | 125° |
| 2026-05-08 23:03 | -23.44161 | -46.68276 | 6234 ft | 216 kts | 121° |
| 2026-05-08 23:03 | -23.44992 | -46.66936 | 5933 ft | 210 kts | 119° |
| 2026-05-08 23:03 | -23.45792 | -46.65617 | 5517 ft | 207 kts | 119° |
| 2026-05-08 23:03 | -23.46582 | -46.64339 | 5216 ft | 199 kts | 119° |
| 2026-05-08 23:04 | -23.47244 | -46.63062 | 4946 ft | 185 kts | 98° |
| 2026-05-08 23:04 | -23.47193 | -46.61806 | 4861 ft | 154 kts | 67° |
| 2026-05-08 23:04 | -23.46988 | -46.60654 | 4639 ft | 156 kts | 72° |
| 2026-05-08 23:04 | -23.46758 | -46.59491 | 4427 ft | 156 kts | 69° |
| 2026-05-08 23:05 | -23.46472 | -46.58350 | 4216 ft | 157 kts | 67° |
| 2026-05-08 23:05 | -23.46168 | -46.57208 | 4016 ft | 155 kts | 68° |
| 2026-05-08 23:05 | -23.45862 | -46.56075 | 3810 ft | 157 kts | 68° |
| 2026-05-08 23:05 | -23.45556 | -46.54941 | 3646 ft | 154 kts | 70° |
| 2026-05-08 23:06 | -23.45260 | -46.53839 | 3462 ft | 152 kts | 70° |
| 2026-05-08 23:06 | -23.44959 | -46.52718 | 3269 ft | 155 kts | 71° |
| 2026-05-08 23:06 | -23.44655 | -46.51601 | 2995 ft | 154 kts | 72° |
| 2026-05-08 23:06 | -23.44353 | -46.50502 | 2832 ft | 152 kts | 73° |
| 2026-05-08 23:07 | -23.44060 | -46.49383 | 2606 ft | 153 kts | 73° |
| 2026-05-08 23:07 | -23.43763 | -46.48270 | 2468 ft | 147 kts | 73° |
| 2026-05-08 23:07 | -23.43501 | -46.47313 | 2465 ft | 112 kts | 74° |
| 2026-05-08 23:07 | -23.43380 | -46.46971 | 2466 ft | 19 kts | 53° |
| 2026-05-08 23:08 | -23.43295 | -46.46861 | 2464 ft | 19 kts | 46° |
| 2026-05-08 23:08 | -23.43207 | -46.46759 | 2465 ft | 18 kts | 46° |
| 2026-05-08 23:08 | -23.43110 | -46.46677 | 2465 ft | 17 kts | 37° |
| 2026-05-08 23:08 | -23.43008 | -46.46619 | 2471 ft | 17 kts | 352° |
| 2026-05-08 23:09 | -23.42922 | -46.46699 | 2467 ft | 16 kts | 312° |
| 2026-05-08 23:09 | -23.42854 | -46.46794 | 2464 ft | 16 kts | 289° |
| 2026-05-08 23:09 | -23.42873 | -46.46916 | 2461 ft | 18 kts | 251° |
| 2026-05-08 23:09 | -23.42916 | -46.47047 | 2463 ft | 19 kts | 253° |
| 2026-05-08 23:10 | -23.42953 | -46.47200 | 2459 ft | 22 kts | 255° |
| 2026-05-08 23:10 | -23.42995 | -46.47367 | 2455 ft | 23 kts | 255° |
| 2026-05-08 23:10 | -23.43038 | -46.47531 | 2459 ft | 22 kts | 253° |
| 2026-05-08 23:10 | -23.43078 | -46.47691 | 2456 ft | 22 kts | 256° |
| 2026-05-08 23:11 | -23.43114 | -46.47848 | 2462 ft | 21 kts | 256° |
| 2026-05-08 23:11 | -23.43157 | -46.47996 | 2461 ft | 20 kts | 249° |
| 2026-05-08 23:11 | -23.43116 | -46.48113 | 2464 ft | 20 kts | 345° |
| 2026-05-08 23:11 | -23.42983 | -46.48141 | 2460 ft | 19 kts | 354° |
| 2026-05-08 23:12 | -23.42888 | -46.48202 | 2456 ft | 6 kts | 272° |
| 2026-05-08 23:12 | -23.42889 | -46.48216 | 2454 ft | 0 kts | 266° |